Overview Statistics Trail Chart Weather Telemetry Raw packets
 

This is the latest recevied weather packets stored in our database for station/object K5SVV. If no packets are shown the sender has not sent any weather packets the latest 10 day(s).

<< 81 82 83 84 85 86 87 >>
Time Temp. Humidity Pressure Rain* Wind** Luminosity Snow
1788100695 30° C 65% 1016.7 hPa 0 mm - 419 W/m² -
1788100394 29.44° C 67% 1016.6 hPa 0 mm - 367 W/m² -
1788100089 29.44° C 67% 1016.5 hPa 0 mm - 358 W/m² -
1788099784 29.44° C 68% 1016.6 hPa 0 mm - 361 W/m² -
1788099479 28.89° C 68% 1016.7 hPa 0 mm - 320 W/m² -
1788099174 28.89° C 69% 1016.6 hPa 0 mm - 316 W/m² -
1788098869 28.33° C 70% 1016.5 hPa 0 mm - 265 W/m² -
1788098569 28.89° C 71% 1016.3 hPa 0 mm - 267 W/m² -
1788098264 28.33° C 71% 1016.4 hPa 0 mm - 242 W/m² -
1788097959 28.33° C 72% 1016.3 hPa 0 mm - 228 W/m² -
1788097655 27.78° C 73% 1016.5 hPa 0 mm - 197 W/m² -
1788097350 27.78° C 75% 1016.6 hPa 0 mm - 182 W/m² -
1788097046 27.78° C 76% 1016.4 hPa 0 mm - 173 W/m² -
1788096741 27.22° C 77% 1016.5 hPa 0 mm - 161 W/m² -
1788096437 27.22° C 78% 1016.4 hPa 0 mm - 134 W/m² -
1788096132 27.22° C 78% 1016.3 hPa 0 mm - 131 W/m² -
1788095831 26.67° C 79% 1016.2 hPa 0 mm - 115 W/m² -
1788095526 26.67° C 79% 1016.4 hPa 0 mm - 100 W/m² -
1788095220 26.67° C 80% 1016.1 hPa 0 mm - 88 W/m² -
1788094914 26.11° C 80% 1016.1 hPa 0 mm - 76 W/m² -
1788094609 26.11° C 81% 1016.3 hPa 0 mm - 69 W/m² -
1788094304 26.11° C 81% 1016.1 hPa 0 mm - 39 W/m² -
1788094002 26.11° C 81% 1016.1 hPa 0 mm - 35 W/m² -
1788093698 25.56° C 81% 1015.9 hPa 0 mm - 31 W/m² -
1788093395 25.56° C 81% 1015.9 hPa 0 mm - 27 W/m² -

* Rain latest hour (hover to see other rain measurements)
** Current wind speed in m/s (hover to see current wind gust speed)